sensor_id;sensor_type;location;lat;lon;timestamp;P1;durP1;ratioP1;P2;durP2;ratioP2
66380;SDS011;53177;52.648;1.214;2022-12-18T00:01:40;49.70;;;15.17;;
66380;SDS011;53177;52.648;1.214;2022-12-18T00:04:06;63.95;;;19.38;;
66380;SDS011;53177;52.648;1.214;2022-12-18T00:06:40;62.33;;;17.23;;
66380;SDS011;53177;52.648;1.214;2022-12-18T00:09:05;57.03;;;16.03;;
66380;SDS011;53177;52.648;1.214;2022-12-18T00:11:30;61.60;;;18.07;;
66380;SDS011;53177;52.648;1.214;2022-12-18T00:13:57;61.22;;;17.10;;
66380;SDS011;53177;52.648;1.214;2022-12-18T00:16:24;59.23;;;16.70;;
66380;SDS011;53177;52.648;1.214;2022-12-18T00:18:52;49.90;;;15.05;;
66380;SDS011;53177;52.648;1.214;2022-12-18T00:21:20;49.15;;;15.30;;
66380;SDS011;53177;52.648;1.214;2022-12-18T00:23:46;55.65;;;16.45;;
66380;SDS011;53177;52.648;1.214;2022-12-18T00:26:16;56.53;;;16.73;;
66380;SDS011;53177;52.648;1.214;2022-12-18T00:28:45;50.57;;;15.37;;
66380;SDS011;53177;52.648;1.214;2022-12-18T00:31:12;57.10;;;15.95;;
66380;SDS011;53177;52.648;1.214;2022-12-18T00:33:43;49.35;;;15.88;;
66380;SDS011;53177;52.648;1.214;2022-12-18T00:36:10;57.03;;;16.70;;
66380;SDS011;53177;52.648;1.214;2022-12-18T00:38:38;50.40;;;15.17;;
66380;SDS011;53177;52.648;1.214;2022-12-18T00:41:04;48.78;;;15.93;;
66380;SDS011;53177;52.648;1.214;2022-12-18T00:43:30;54.42;;;14.88;;
66380;SDS011;53177;52.648;1.214;2022-12-18T00:45:58;53.10;;;14.98;;
66380;SDS011;53177;52.648;1.214;2022-12-18T00:48:24;59.53;;;17.73;;
66380;SDS011;53177;52.648;1.214;2022-12-18T00:50:49;47.87;;;15.23;;
66380;SDS011;53177;52.648;1.214;2022-12-18T00:53:15;50.92;;;15.77;;
66380;SDS011;53177;52.648;1.214;2022-12-18T00:55:41;52.70;;;16.77;;
66380;SDS011;53177;52.648;1.214;2022-12-18T00:58:07;47.20;;;14.10;;
66380;SDS011;53177;52.648;1.214;2022-12-18T01:00:33;49.63;;;15.35;;
66380;SDS011;53177;52.648;1.214;2022-12-18T01:02:59;49.67;;;14.53;;
66380;SDS011;53177;52.648;1.214;2022-12-18T01:05:25;50.97;;;15.90;;
66380;SDS011;53177;52.648;1.214;2022-12-18T01:07:50;54.53;;;16.05;;
66380;SDS011;53177;52.648;1.214;2022-12-18T01:10:17;54.80;;;16.05;;
66380;SDS011;53177;52.648;1.214;2022-12-18T01:12:44;46.50;;;14.27;;
66380;SDS011;53177;52.648;1.214;2022-12-18T01:15:09;48.67;;;15.20;;
66380;SDS011;53177;52.648;1.214;2022-12-18T01:17:36;54.00;;;18.10;;
66380;SDS011;53177;52.648;1.214;2022-12-18T01:20:02;47.37;;;14.63;;
66380;SDS011;53177;52.648;1.214;2022-12-18T01:22:28;52.80;;;16.98;;
66380;SDS011;53177;52.648;1.214;2022-12-18T01:24:53;54.40;;;16.07;;
66380;SDS011;53177;52.648;1.214;2022-12-18T01:27:19;49.90;;;15.85;;
66380;SDS011;53177;52.648;1.214;2022-12-18T01:29:45;51.10;;;16.57;;
66380;SDS011;53177;52.648;1.214;2022-12-18T01:32:10;48.30;;;14.37;;
66380;SDS011;53177;52.648;1.214;2022-12-18T01:34:36;50.60;;;15.93;;
66380;SDS011;53177;52.648;1.214;2022-12-18T01:37:02;49.38;;;16.40;;
66380;SDS011;53177;52.648;1.214;2022-12-18T01:39:29;44.22;;;16.05;;
66380;SDS011;53177;52.648;1.214;2022-12-18T01:41:55;47.67;;;15.20;;
66380;SDS011;53177;52.648;1.214;2022-12-18T01:49:52;47.13;;;14.03;;
66380;SDS011;53177;52.648;1.214;2022-12-18T01:52:19;45.28;;;14.48;;
66380;SDS011;53177;52.648;1.214;2022-12-18T01:54:46;53.83;;;17.25;;
66380;SDS011;53177;52.648;1.214;2022-12-18T01:57:13;49.70;;;15.57;;
66380;SDS011;53177;52.648;1.214;2022-12-18T01:59:40;47.60;;;14.53;;
66380;SDS011;53177;52.648;1.214;2022-12-18T02:02:07;46.85;;;14.25;;
66380;SDS011;53177;52.648;1.214;2022-12-18T02:04:33;45.40;;;14.80;;
66380;SDS011;53177;52.648;1.214;2022-12-18T02:09:50;42.03;;;13.98;;
66380;SDS011;53177;52.648;1.214;2022-12-18T02:15:17;43.97;;;13.85;;
66380;SDS011;53177;52.648;1.214;2022-12-18T02:17:52;45.92;;;14.63;;
66380;SDS011;53177;52.648;1.214;2022-12-18T02:20:25;47.25;;;14.25;;
66380;SDS011;53177;52.648;1.214;2022-12-18T02:23:16;43.45;;;12.95;;
66380;SDS011;53177;52.648;1.214;2022-12-18T02:28:35;46.40;;;15.50;;
66380;SDS011;53177;52.648;1.214;2022-12-18T02:31:06;50.80;;;15.10;;
66380;SDS011;53177;52.648;1.214;2022-12-18T02:33:35;45.03;;;14.63;;
66380;SDS011;53177;52.648;1.214;2022-12-18T02:36:02;48.88;;;15.48;;
66380;SDS011;53177;52.648;1.214;2022-12-18T02:38:29;42.00;;;13.63;;
66380;SDS011;53177;52.648;1.214;2022-12-18T02:40:56;43.03;;;13.93;;
66380;SDS011;53177;52.648;1.214;2022-12-18T02:43:22;52.85;;;16.48;;
66380;SDS011;53177;52.648;1.214;2022-12-18T02:45:49;43.37;;;14.37;;
66380;SDS011;53177;52.648;1.214;2022-12-18T02:48:18;43.63;;;15.20;;
66380;SDS011;53177;52.648;1.214;2022-12-18T02:51:10;46.40;;;15.18;;
66380;SDS011;53177;52.648;1.214;2022-12-18T02:54:00;40.70;;;13.45;;
66380;SDS011;53177;52.648;1.214;2022-12-18T02:56:46;44.05;;;16.55;;
66380;SDS011;53177;52.648;1.214;2022-12-18T02:59:17;40.37;;;14.70;;
66380;SDS011;53177;52.648;1.214;2022-12-18T03:01:53;42.05;;;15.30;;
66380;SDS011;53177;52.648;1.214;2022-12-18T03:04:33;44.75;;;14.00;;
66380;SDS011;53177;52.648;1.214;2022-12-18T03:07:12;40.42;;;14.55;;
66380;SDS011;53177;52.648;1.214;2022-12-18T03:09:45;40.78;;;13.90;;
66380;SDS011;53177;52.648;1.214;2022-12-18T03:12:20;47.10;;;14.80;;
66380;SDS011;53177;52.648;1.214;2022-12-18T03:15:03;43.08;;;14.45;;
66380;SDS011;53177;52.648;1.214;2022-12-18T03:17:56;45.33;;;16.02;;
66380;SDS011;53177;52.648;1.214;2022-12-18T03:20:28;46.05;;;15.75;;
66380;SDS011;53177;52.648;1.214;2022-12-18T03:22:57;43.10;;;14.27;;
66380;SDS011;53177;52.648;1.214;2022-12-18T03:25:29;52.17;;;15.20;;
66380;SDS011;53177;52.648;1.214;2022-12-18T03:27:56;43.25;;;14.10;;
66380;SDS011;53177;52.648;1.214;2022-12-18T03:30:26;41.67;;;14.20;;
66380;SDS011;53177;52.648;1.214;2022-12-18T03:33:01;44.30;;;14.43;;
66380;SDS011;53177;52.648;1.214;2022-12-18T03:35:37;46.10;;;14.50;;
66380;SDS011;53177;52.648;1.214;2022-12-18T03:38:05;49.80;;;15.50;;
66380;SDS011;53177;52.648;1.214;2022-12-18T03:40:35;41.80;;;14.32;;
66380;SDS011;53177;52.648;1.214;2022-12-18T03:43:55;46.63;;;14.10;;
66380;SDS011;53177;52.648;1.214;2022-12-18T03:46:11;42.88;;;14.57;;
66380;SDS011;53177;52.648;1.214;2022-12-18T03:49:06;41.92;;;14.38;;
66380;SDS011;53177;52.648;1.214;2022-12-18T03:52:11;48.93;;;14.57;;
66380;SDS011;53177;52.648;1.214;2022-12-18T03:54:51;41.45;;;13.30;;
66380;SDS011;53177;52.648;1.214;2022-12-18T03:57:20;44.28;;;13.77;;
66380;SDS011;53177;52.648;1.214;2022-12-18T03:59:49;38.53;;;13.57;;
66380;SDS011;53177;52.648;1.214;2022-12-18T04:02:19;42.85;;;14.45;;
66380;SDS011;53177;52.648;1.214;2022-12-18T04:04:47;37.03;;;12.60;;
66380;SDS011;53177;52.648;1.214;2022-12-18T04:07:16;37.30;;;12.63;;
66380;SDS011;53177;52.648;1.214;2022-12-18T04:09:43;39.40;;;12.68;;
66380;SDS011;53177;52.648;1.214;2022-12-18T04:12:10;43.42;;;13.60;;
66380;SDS011;53177;52.648;1.214;2022-12-18T04:14:36;44.20;;;12.87;;
66380;SDS011;53177;52.648;1.214;2022-12-18T04:17:02;39.30;;;13.23;;
66380;SDS011;53177;52.648;1.214;2022-12-18T04:19:28;37.55;;;13.07;;
66380;SDS011;53177;52.648;1.214;2022-12-18T04:21:53;37.47;;;12.73;;
66380;SDS011;53177;52.648;1.214;2022-12-18T04:24:19;37.83;;;13.82;;
66380;SDS011;53177;52.648;1.214;2022-12-18T04:26:45;40.27;;;13.43;;
66380;SDS011;53177;52.648;1.214;2022-12-18T04:29:10;38.85;;;12.88;;
66380;SDS011;53177;52.648;1.214;2022-12-18T04:31:36;34.22;;;12.57;;
66380;SDS011;53177;52.648;1.214;2022-12-18T04:34:01;34.80;;;12.07;;
66380;SDS011;53177;52.648;1.214;2022-12-18T04:36:27;39.17;;;13.10;;
66380;SDS011;53177;52.648;1.214;2022-12-18T04:38:52;36.83;;;14.07;;
66380;SDS011;53177;52.648;1.214;2022-12-18T04:41:18;41.40;;;13.10;;
66380;SDS011;53177;52.648;1.214;2022-12-18T04:43:43;40.23;;;13.40;;
66380;SDS011;53177;52.648;1.214;2022-12-18T04:46:09;38.27;;;13.13;;
66380;SDS011;53177;52.648;1.214;2022-12-18T04:48:34;41.50;;;13.05;;
66380;SDS011;53177;52.648;1.214;2022-12-18T04:51:00;36.13;;;13.43;;
66380;SDS011;53177;52.648;1.214;2022-12-18T04:53:26;39.47;;;13.35;;
66380;SDS011;53177;52.648;1.214;2022-12-18T04:56:01;36.70;;;12.70;;
66380;SDS011;53177;52.648;1.214;2022-12-18T04:58:31;36.65;;;12.70;;
66380;SDS011;53177;52.648;1.214;2022-12-18T05:00:56;40.83;;;12.97;;
66380;SDS011;53177;52.648;1.214;2022-12-18T05:03:21;39.47;;;13.43;;
66380;SDS011;53177;52.648;1.214;2022-12-18T05:05:50;39.50;;;12.73;;
66380;SDS011;53177;52.648;1.214;2022-12-18T05:08:16;38.73;;;13.77;;
66380;SDS011;53177;52.648;1.214;2022-12-18T05:10:42;37.28;;;12.98;;
66380;SDS011;53177;52.648;1.214;2022-12-18T05:13:07;35.90;;;12.70;;
66380;SDS011;53177;52.648;1.214;2022-12-18T05:15:33;35.42;;;12.15;;
66380;SDS011;53177;52.648;1.214;2022-12-18T05:17:59;36.30;;;12.67;;
66380;SDS011;53177;52.648;1.214;2022-12-18T05:20:26;40.28;;;12.20;;
66380;SDS011;53177;52.648;1.214;2022-12-18T05:22:52;36.20;;;12.48;;
66380;SDS011;53177;52.648;1.214;2022-12-18T05:25:18;39.50;;;13.27;;
66380;SDS011;53177;52.648;1.214;2022-12-18T05:27:44;39.28;;;12.57;;
66380;SDS011;53177;52.648;1.214;2022-12-18T05:30:10;38.05;;;12.43;;
66380;SDS011;53177;52.648;1.214;2022-12-18T05:32:37;40.07;;;13.30;;
66380;SDS011;53177;52.648;1.214;2022-12-18T05:35:05;39.83;;;12.98;;
66380;SDS011;53177;52.648;1.214;2022-12-18T05:37:32;39.80;;;13.27;;
66380;SDS011;53177;52.648;1.214;2022-12-18T05:39:57;41.40;;;13.07;;
66380;SDS011;53177;52.648;1.214;2022-12-18T05:42:23;41.83;;;13.97;;
66380;SDS011;53177;52.648;1.214;2022-12-18T05:44:48;39.33;;;13.35;;
66380;SDS011;53177;52.648;1.214;2022-12-18T05:47:14;33.67;;;11.73;;
66380;SDS011;53177;52.648;1.214;2022-12-18T05:49:39;34.10;;;11.53;;
66380;SDS011;53177;52.648;1.214;2022-12-18T05:52:04;34.53;;;11.17;;
66380;SDS011;53177;52.648;1.214;2022-12-18T05:54:30;38.85;;;12.43;;
66380;SDS011;53177;52.648;1.214;2022-12-18T05:56:56;36.67;;;12.47;;
66380;SDS011;53177;52.648;1.214;2022-12-18T05:59:22;36.05;;;11.65;;
66380;SDS011;53177;52.648;1.214;2022-12-18T06:01:48;34.03;;;12.00;;
66380;SDS011;53177;52.648;1.214;2022-12-18T06:04:13;37.47;;;11.60;;
66380;SDS011;53177;52.648;1.214;2022-12-18T06:06:39;39.87;;;12.27;;
66380;SDS011;53177;52.648;1.214;2022-12-18T06:09:05;31.60;;;11.07;;
66380;SDS011;53177;52.648;1.214;2022-12-18T06:11:33;28.55;;;10.40;;
66380;SDS011;53177;52.648;1.214;2022-12-18T06:14:00;34.47;;;10.93;;
66380;SDS011;53177;52.648;1.214;2022-12-18T06:16:26;35.20;;;11.18;;
66380;SDS011;53177;52.648;1.214;2022-12-18T06:18:52;33.90;;;12.10;;
66380;SDS011;53177;52.648;1.214;2022-12-18T06:21:18;29.83;;;10.30;;
66380;SDS011;53177;52.648;1.214;2022-12-18T06:23:44;29.50;;;9.50;;
66380;SDS011;53177;52.648;1.214;2022-12-18T06:26:11;31.73;;;10.88;;
66380;SDS011;53177;52.648;1.214;2022-12-18T06:28:38;32.90;;;9.63;;
66380;SDS011;53177;52.648;1.214;2022-12-18T06:31:03;32.13;;;9.93;;
66380;SDS011;53177;52.648;1.214;2022-12-18T06:33:30;32.60;;;10.50;;
66380;SDS011;53177;52.648;1.214;2022-12-18T06:35:59;34.50;;;10.93;;
66380;SDS011;53177;52.648;1.214;2022-12-18T06:38:26;31.05;;;10.32;;
66380;SDS011;53177;52.648;1.214;2022-12-18T06:40:51;33.03;;;10.13;;
66380;SDS011;53177;52.648;1.214;2022-12-18T06:43:17;30.17;;;10.37;;
66380;SDS011;53177;52.648;1.214;2022-12-18T06:45:42;31.48;;;9.73;;
66380;SDS011;53177;52.648;1.214;2022-12-18T06:48:08;29.80;;;9.60;;
66380;SDS011;53177;52.648;1.214;2022-12-18T06:50:33;26.93;;;9.07;;
66380;SDS011;53177;52.648;1.214;2022-12-18T06:52:59;30.60;;;9.83;;
66380;SDS011;53177;52.648;1.214;2022-12-18T06:55:24;30.90;;;9.60;;
66380;SDS011;53177;52.648;1.214;2022-12-18T06:57:50;26.07;;;9.00;;
66380;SDS011;53177;52.648;1.214;2022-12-18T07:00:16;29.42;;;10.32;;
66380;SDS011;53177;52.648;1.214;2022-12-18T07:02:42;28.63;;;9.53;;
66380;SDS011;53177;52.648;1.214;2022-12-18T07:05:08;27.42;;;9.35;;
66380;SDS011;53177;52.648;1.214;2022-12-18T07:07:34;31.93;;;9.60;;
66380;SDS011;53177;52.648;1.214;2022-12-18T07:10:00;27.13;;;8.60;;
66380;SDS011;53177;52.648;1.214;2022-12-18T07:12:26;25.30;;;8.90;;
66380;SDS011;53177;52.648;1.214;2022-12-18T07:14:52;28.75;;;8.55;;
66380;SDS011;53177;52.648;1.214;2022-12-18T07:17:17;26.13;;;9.10;;
66380;SDS011;53177;52.648;1.214;2022-12-18T07:19:43;25.13;;;8.93;;
66380;SDS011;53177;52.648;1.214;2022-12-18T07:22:08;28.00;;;8.45;;
66380;SDS011;53177;52.648;1.214;2022-12-18T07:24:34;24.50;;;8.30;;
66380;SDS011;53177;52.648;1.214;2022-12-18T07:26:59;26.13;;;8.47;;
66380;SDS011;53177;52.648;1.214;2022-12-18T07:29:25;24.58;;;8.07;;
66380;SDS011;53177;52.648;1.214;2022-12-18T07:31:51;22.37;;;7.60;;
66380;SDS011;53177;52.648;1.214;2022-12-18T07:34:16;23.23;;;8.53;;
66380;SDS011;53177;52.648;1.214;2022-12-18T07:36:42;22.83;;;8.00;;
66380;SDS011;53177;52.648;1.214;2022-12-18T07:39:14;24.23;;;7.75;;
66380;SDS011;53177;52.648;1.214;2022-12-18T07:41:42;22.60;;;7.65;;
66380;SDS011;53177;52.648;1.214;2022-12-18T07:44:16;21.75;;;7.50;;
66380;SDS011;53177;52.648;1.214;2022-12-18T07:46:45;26.17;;;8.25;;
66380;SDS011;53177;52.648;1.214;2022-12-18T07:49:14;19.43;;;7.17;;
66380;SDS011;53177;52.648;1.214;2022-12-18T07:51:42;20.83;;;6.93;;
66380;SDS011;53177;52.648;1.214;2022-12-18T07:54:15;20.45;;;7.63;;
66380;SDS011;53177;52.648;1.214;2022-12-18T07:56:47;20.63;;;7.10;;
66380;SDS011;53177;52.648;1.214;2022-12-18T07:59:20;23.33;;;8.02;;
66380;SDS011;53177;52.648;1.214;2022-12-18T08:01:47;22.03;;;7.17;;
66380;SDS011;53177;52.648;1.214;2022-12-18T08:04:15;20.30;;;7.35;;
66380;SDS011;53177;52.648;1.214;2022-12-18T08:06:41;19.42;;;7.40;;
66380;SDS011;53177;52.648;1.214;2022-12-18T08:09:09;20.73;;;7.47;;
66380;SDS011;53177;52.648;1.214;2022-12-18T08:11:34;24.58;;;7.60;;
66380;SDS011;53177;52.648;1.214;2022-12-18T08:14:00;17.90;;;6.73;;
66380;SDS011;53177;52.648;1.214;2022-12-18T08:16:25;19.00;;;6.97;;
66380;SDS011;53177;52.648;1.214;2022-12-18T08:18:51;19.55;;;7.38;;
66380;SDS011;53177;52.648;1.214;2022-12-18T08:21:19;22.60;;;7.65;;
66380;SDS011;53177;52.648;1.214;2022-12-18T08:23:48;20.77;;;7.60;;
66380;SDS011;53177;52.648;1.214;2022-12-18T08:26:14;24.00;;;7.82;;
66380;SDS011;53177;52.648;1.214;2022-12-18T08:28:39;22.77;;;7.88;;
66380;SDS011;53177;52.648;1.214;2022-12-18T08:31:06;22.10;;;7.57;;
66380;SDS011;53177;52.648;1.214;2022-12-18T08:33:32;21.92;;;7.93;;
66380;SDS011;53177;52.648;1.214;2022-12-18T08:35:58;22.70;;;8.23;;
66380;SDS011;53177;52.648;1.214;2022-12-18T08:38:25;25.33;;;8.68;;
66380;SDS011;53177;52.648;1.214;2022-12-18T08:41:10;22.17;;;8.27;;
66380;SDS011;53177;52.648;1.214;2022-12-18T08:43:42;22.02;;;8.55;;
66380;SDS011;53177;52.648;1.214;2022-12-18T08:46:26;21.83;;;7.90;;
66380;SDS011;53177;52.648;1.214;2022-12-18T08:48:57;23.58;;;8.32;;
66380;SDS011;53177;52.648;1.214;2022-12-18T08:51:23;22.10;;;8.05;;
66380;SDS011;53177;52.648;1.214;2022-12-18T08:53:50;25.20;;;8.23;;
66380;SDS011;53177;52.648;1.214;2022-12-18T08:56:15;23.17;;;8.73;;
66380;SDS011;53177;52.648;1.214;2022-12-18T08:58:41;19.73;;;7.80;;
66380;SDS011;53177;52.648;1.214;2022-12-18T09:01:08;23.15;;;8.43;;
66380;SDS011;53177;52.648;1.214;2022-12-18T09:03:35;31.23;;;10.15;;
66380;SDS011;53177;52.648;1.214;2022-12-18T09:06:01;28.52;;;9.95;;
66380;SDS011;53177;52.648;1.214;2022-12-18T09:08:26;24.25;;;9.18;;
66380;SDS011;53177;52.648;1.214;2022-12-18T09:10:52;23.77;;;8.50;;
66380;SDS011;53177;52.648;1.214;2022-12-18T09:13:18;23.47;;;9.80;;
66380;SDS011;53177;52.648;1.214;2022-12-18T09:15:48;22.50;;;8.98;;
66380;SDS011;53177;52.648;1.214;2022-12-18T09:18:19;24.33;;;9.10;;
66380;SDS011;53177;52.648;1.214;2022-12-18T09:20:45;27.90;;;11.23;;
66380;SDS011;53177;52.648;1.214;2022-12-18T09:23:11;30.48;;;10.73;;
66380;SDS011;53177;52.648;1.214;2022-12-18T09:25:38;26.08;;;10.02;;
66380;SDS011;53177;52.648;1.214;2022-12-18T09:28:10;33.20;;;11.40;;
66380;SDS011;53177;52.648;1.214;2022-12-18T09:30:41;26.30;;;9.82;;
66380;SDS011;53177;52.648;1.214;2022-12-18T09:33:09;27.17;;;11.27;;
66380;SDS011;53177;52.648;1.214;2022-12-18T09:35:41;27.77;;;10.20;;
66380;SDS011;53177;52.648;1.214;2022-12-18T09:38:08;26.35;;;10.43;;
66380;SDS011;53177;52.648;1.214;2022-12-18T09:40:44;28.63;;;11.05;;
66380;SDS011;53177;52.648;1.214;2022-12-18T09:43:19;32.92;;;11.05;;
66380;SDS011;53177;52.648;1.214;2022-12-18T09:45:49;30.20;;;11.47;;
66380;SDS011;53177;52.648;1.214;2022-12-18T09:48:20;26.05;;;11.10;;
66380;SDS011;53177;52.648;1.214;2022-12-18T09:50:51;29.95;;;11.75;;
66380;SDS011;53177;52.648;1.214;2022-12-18T09:53:26;36.30;;;13.43;;
66380;SDS011;53177;52.648;1.214;2022-12-18T09:55:55;30.35;;;12.85;;
66380;SDS011;53177;52.648;1.214;2022-12-18T09:58:34;39.37;;;15.10;;
66380;SDS011;53177;52.648;1.214;2022-12-18T10:01:22;31.30;;;12.88;;
66380;SDS011;53177;52.648;1.214;2022-12-18T10:03:49;27.67;;;11.77;;
66380;SDS011;53177;52.648;1.214;2022-12-18T10:06:30;32.85;;;12.48;;
66380;SDS011;53177;52.648;1.214;2022-12-18T10:14:42;30.83;;;13.10;;
66380;SDS011;53177;52.648;1.214;2022-12-18T10:20:13;30.40;;;12.93;;
66380;SDS011;53177;52.648;1.214;2022-12-18T10:28:07;37.75;;;13.00;;
66380;SDS011;53177;52.648;1.214;2022-12-18T10:30:37;34.50;;;14.27;;
66380;SDS011;53177;52.648;1.214;2022-12-18T10:33:04;32.65;;;13.18;;
66380;SDS011;53177;52.648;1.214;2022-12-18T10:35:29;34.33;;;14.77;;
66380;SDS011;53177;52.648;1.214;2022-12-18T10:38:02;37.92;;;14.45;;
66380;SDS011;53177;52.648;1.214;2022-12-18T10:40:31;32.00;;;12.88;;
66380;SDS011;53177;52.648;1.214;2022-12-18T10:43:10;34.80;;;13.83;;
66380;SDS011;53177;52.648;1.214;2022-12-18T10:45:37;34.45;;;13.93;;
66380;SDS011;53177;52.648;1.214;2022-12-18T10:48:03;35.03;;;14.03;;
66380;SDS011;53177;52.648;1.214;2022-12-18T10:53:00;32.45;;;13.52;;
66380;SDS011;53177;52.648;1.214;2022-12-18T10:55:32;29.65;;;13.43;;
66380;SDS011;53177;52.648;1.214;2022-12-18T10:58:13;37.17;;;12.90;;
66380;SDS011;53177;52.648;1.214;2022-12-18T11:03:33;31.67;;;12.98;;
66380;SDS011;53177;52.648;1.214;2022-12-18T11:08:37;31.55;;;13.60;;
66380;SDS011;53177;52.648;1.214;2022-12-18T11:11:03;35.50;;;13.97;;
66380;SDS011;53177;52.648;1.214;2022-12-18T11:13:39;31.73;;;12.43;;
66380;SDS011;53177;52.648;1.214;2022-12-18T11:16:05;34.50;;;13.55;;
66380;SDS011;53177;52.648;1.214;2022-12-18T11:18:34;30.70;;;12.60;;
66380;SDS011;53177;52.648;1.214;2022-12-18T11:21:07;31.63;;;12.52;;
66380;SDS011;53177;52.648;1.214;2022-12-18T11:23:34;27.05;;;12.07;;
66380;SDS011;53177;52.648;1.214;2022-12-18T11:26:03;30.30;;;11.98;;
66380;SDS011;53177;52.648;1.214;2022-12-18T11:28:38;29.70;;;12.43;;
66380;SDS011;53177;52.648;1.214;2022-12-18T11:31:24;30.10;;;11.70;;
66380;SDS011;53177;52.648;1.214;2022-12-18T11:34:08;28.77;;;11.10;;
66380;SDS011;53177;52.648;1.214;2022-12-18T11:36:37;31.27;;;11.93;;
66380;SDS011;53177;52.648;1.214;2022-12-18T11:42:55;26.45;;;11.10;;
66380;SDS011;53177;52.648;1.214;2022-12-18T11:53:01;27.50;;;11.52;;
66380;SDS011;53177;52.648;1.214;2022-12-18T11:56:30;30.33;;;11.27;;
66380;SDS011;53177;52.648;1.214;2022-12-18T11:58:46;28.70;;;12.13;;
66380;SDS011;53177;52.648;1.214;2022-12-18T12:15:55;27.15;;;11.30;;
66380;SDS011;53177;52.648;1.214;2022-12-18T12:21:02;27.70;;;11.27;;
66380;SDS011;53177;52.648;1.214;2022-12-18T12:26:38;29.87;;;11.70;;
66380;SDS011;53177;52.648;1.214;2022-12-18T12:32:10;30.52;;;11.85;;
66380;SDS011;53177;52.648;1.214;2022-12-18T12:37:33;28.88;;;12.32;;
66380;SDS011;53177;52.648;1.214;2022-12-18T12:40:03;30.83;;;12.30;;
66380;SDS011;53177;52.648;1.214;2022-12-18T12:42:39;28.52;;;11.13;;
66380;SDS011;53177;52.648;1.214;2022-12-18T12:45:31;27.95;;;12.18;;
66380;SDS011;53177;52.648;1.214;2022-12-18T12:48:02;27.38;;;11.70;;
66380;SDS011;53177;52.648;1.214;2022-12-18T12:50:30;27.77;;;12.02;;
66380;SDS011;53177;52.648;1.214;2022-12-18T12:52:59;33.53;;;12.47;;
66380;SDS011;53177;52.648;1.214;2022-12-18T12:55:30;32.50;;;12.60;;
66380;SDS011;53177;52.648;1.214;2022-12-18T13:03:52;33.45;;;12.57;;
66380;SDS011;53177;52.648;1.214;2022-12-18T13:09:12;32.03;;;13.00;;
66380;SDS011;53177;52.648;1.214;2022-12-18T13:11:43;28.35;;;12.27;;
66380;SDS011;53177;52.648;1.214;2022-12-18T13:19:49;30.02;;;12.20;;
66380;SDS011;53177;52.648;1.214;2022-12-18T13:22:35;34.97;;;14.57;;
66380;SDS011;53177;52.648;1.214;2022-12-18T13:25:42;31.27;;;13.45;;
66380;SDS011;53177;52.648;1.214;2022-12-18T13:35:41;30.80;;;12.80;;
66380;SDS011;53177;52.648;1.214;2022-12-18T13:40:56;30.07;;;12.77;;
66380;SDS011;53177;52.648;1.214;2022-12-18T13:51:23;29.83;;;13.38;;
66380;SDS011;53177;52.648;1.214;2022-12-18T13:53:51;29.37;;;13.00;;
66380;SDS011;53177;52.648;1.214;2022-12-18T13:56:24;27.85;;;12.38;;
66380;SDS011;53177;52.648;1.214;2022-12-18T13:59:09;30.65;;;12.90;;
66380;SDS011;53177;52.648;1.214;2022-12-18T14:01:58;29.48;;;12.68;;
66380;SDS011;53177;52.648;1.214;2022-12-18T14:04:27;30.38;;;13.15;;
66380;SDS011;53177;52.648;1.214;2022-12-18T14:06:55;32.97;;;12.43;;
66380;SDS011;53177;52.648;1.214;2022-12-18T14:09:31;31.60;;;13.35;;
66380;SDS011;53177;52.648;1.214;2022-12-18T14:12:01;27.92;;;12.43;;
66380;SDS011;53177;52.648;1.214;2022-12-18T14:14:49;31.63;;;14.43;;
66380;SDS011;53177;52.648;1.214;2022-12-18T14:17:17;32.15;;;13.77;;
66380;SDS011;53177;52.648;1.214;2022-12-18T14:19:46;31.27;;;13.47;;
66380;SDS011;53177;52.648;1.214;2022-12-18T14:22:18;31.95;;;13.15;;
66380;SDS011;53177;52.648;1.214;2022-12-18T14:24:46;31.13;;;13.15;;
66380;SDS011;53177;52.648;1.214;2022-12-18T14:27:29;33.58;;;13.80;;
66380;SDS011;53177;52.648;1.214;2022-12-18T14:29:54;31.50;;;14.23;;
66380;SDS011;53177;52.648;1.214;2022-12-18T14:32:20;31.90;;;13.63;;
66380;SDS011;53177;52.648;1.214;2022-12-18T14:34:50;34.53;;;14.52;;
66380;SDS011;53177;52.648;1.214;2022-12-18T14:37:17;29.02;;;13.43;;
66380;SDS011;53177;52.648;1.214;2022-12-18T14:39:56;33.70;;;13.90;;
66380;SDS011;53177;52.648;1.214;2022-12-18T14:42:33;33.97;;;14.73;;
66380;SDS011;53177;52.648;1.214;2022-12-18T14:48:15;35.60;;;15.13;;
66380;SDS011;53177;52.648;1.214;2022-12-18T14:50:41;35.42;;;14.50;;
66380;SDS011;53177;52.648;1.214;2022-12-18T14:53:20;33.17;;;14.18;;
66380;SDS011;53177;52.648;1.214;2022-12-18T14:55:53;33.35;;;13.23;;
66380;SDS011;53177;52.648;1.214;2022-12-18T14:58:19;34.07;;;14.93;;
66380;SDS011;53177;52.648;1.214;2022-12-18T15:00:44;32.83;;;14.47;;
66380;SDS011;53177;52.648;1.214;2022-12-18T15:03:10;37.33;;;14.88;;
66380;SDS011;53177;52.648;1.214;2022-12-18T15:05:42;37.45;;;13.68;;
66380;SDS011;53177;52.648;1.214;2022-12-18T15:08:26;36.92;;;15.65;;
66380;SDS011;53177;52.648;1.214;2022-12-18T15:10:59;31.48;;;14.48;;
66380;SDS011;53177;52.648;1.214;2022-12-18T15:13:24;38.77;;;14.63;;
66380;SDS011;53177;52.648;1.214;2022-12-18T15:15:51;36.72;;;15.30;;
66380;SDS011;53177;52.648;1.214;2022-12-18T15:18:18;39.92;;;14.68;;
66380;SDS011;53177;52.648;1.214;2022-12-18T15:25:57;37.75;;;17.05;;
66380;SDS011;53177;52.648;1.214;2022-12-18T15:31:00;45.22;;;17.77;;
66380;SDS011;53177;52.648;1.214;2022-12-18T15:33:27;35.97;;;14.30;;
66380;SDS011;53177;52.648;1.214;2022-12-18T15:36:00;39.78;;;16.40;;
66380;SDS011;53177;52.648;1.214;2022-12-18T15:38:28;37.30;;;16.10;;
66380;SDS011;53177;52.648;1.214;2022-12-18T15:40:54;37.70;;;15.67;;
66380;SDS011;53177;52.648;1.214;2022-12-18T15:43:21;40.45;;;15.65;;
66380;SDS011;53177;52.648;1.214;2022-12-18T15:46:13;36.83;;;16.80;;
66380;SDS011;53177;52.648;1.214;2022-12-18T15:48:40;35.95;;;15.35;;
66380;SDS011;53177;52.648;1.214;2022-12-18T15:51:14;35.70;;;15.73;;
66380;SDS011;53177;52.648;1.214;2022-12-18T15:53:45;36.70;;;15.77;;
66380;SDS011;53177;52.648;1.214;2022-12-18T15:56:12;37.63;;;14.93;;
66380;SDS011;53177;52.648;1.214;2022-12-18T15:58:57;41.55;;;16.98;;
66380;SDS011;53177;52.648;1.214;2022-12-18T16:01:24;37.17;;;15.93;;
66380;SDS011;53177;52.648;1.214;2022-12-18T16:03:51;36.83;;;15.90;;
66380;SDS011;53177;52.648;1.214;2022-12-18T16:06:18;37.55;;;16.05;;
66380;SDS011;53177;52.648;1.214;2022-12-18T16:08:43;42.87;;;18.47;;
66380;SDS011;53177;52.648;1.214;2022-12-18T16:11:16;45.60;;;18.70;;
66380;SDS011;53177;52.648;1.214;2022-12-18T16:14:24;44.03;;;18.10;;
66380;SDS011;53177;52.648;1.214;2022-12-18T16:16:53;38.92;;;16.58;;
66380;SDS011;53177;52.648;1.214;2022-12-18T16:19:23;42.78;;;17.65;;
66380;SDS011;53177;52.648;1.214;2022-12-18T16:21:50;36.70;;;15.70;;
66380;SDS011;53177;52.648;1.214;2022-12-18T16:24:17;40.63;;;16.70;;
66380;SDS011;53177;52.648;1.214;2022-12-18T16:26:47;44.55;;;18.27;;
66380;SDS011;53177;52.648;1.214;2022-12-18T16:29:14;47.20;;;17.75;;
66380;SDS011;53177;52.648;1.214;2022-12-18T16:31:40;46.63;;;17.50;;
66380;SDS011;53177;52.648;1.214;2022-12-18T16:34:19;40.17;;;16.83;;
66380;SDS011;53177;52.648;1.214;2022-12-18T16:36:47;45.30;;;18.02;;